Aviation Digital Data Service (ADDS)

Output produced by METARs form (0701 UTC 25 October 2014)
found at http://www.aviationweather.gov/adds/metars/
 
KJST 250654Z AUTO 23006KT 10SM CLR 07/02 A2998 RMK AO2 SLP160 T00720022
KJST 250630Z AUTO 21006KT 10SM FEW028 SCT042 08/02 A2998 RMK AO2 T00830022
KJST 250622Z AUTO 22006KT 10SM BKN028 BKN042 09/02 A2998 RMK AO2 T00890022
KJST 250615Z AUTO 22006KT 10SM SCT029 BKN041 08/02 A2999 RMK AO2 T00830022
KJST 250554Z AUTO 24007KT 10SM OVC029 08/03 A2999 RMK AO2 SLP159 T00830028 10094 20078 56006
KJST 250529Z AUTO 22008KT 10SM BKN028 09/02 A2999 RMK AO2 T00890022
KJST 250454Z AUTO 25009KT 10SM SCT038 09/02 A2999 RMK AO2 SLP159 T00890022 401170056
KJST 250354Z AUTO 27009KT 10SM CLR 09/02 A3000 RMK AO2 SLP166 T00940017
KJST 250254Z AUTO 27010KT 10SM CLR 09/02 A3001 RMK AO2 SLP169 T00890017 51006
KJST 250154Z AUTO 27009KT 10SM CLR 09/02 A3000 RMK AO2 SLP168 T00890017
KJST 250054Z AUTO 26009KT 10SM CLR 08/02 A2999 RMK AO2 SLP166 T00830017
KJST 242354Z AUTO 26007KT 10SM CLR 09/02 A2999 RMK AO2 SLP164 T00890022 10117 20089 53003
KJST 242254Z AUTO 27009KT 10SM CLR 09/03 A2998 RMK AO2 SLP161 T00940028
KJST 242154Z AUTO 28012KT 10SM CLR 11/03 A2998 RMK AO2 SLP159 T01060028
KJST 242054Z AUTO 29010KT 10SM CLR 12/03 A2998 RMK AO2 SLP159 T01170028 56007
KJST 241954Z AUTO 28010KT 10SM CLR 11/03 A2998 RMK AO2 SLP161 T01110028
KJST 241854Z AUTO 30013KT 10SM CLR 10/03 A2999 RMK AO2 SLP163 T01000028
KJST 241754Z AUTO 30010KT 10SM CLR 10/03 A3000 RMK AO2 WSHFT 1702 SLP167 T01000033 10111 20056 58016
KJST 241722Z AUTO 30011KT 10SM CLR 10/03 A3002 RMK AO2 WSHFT 1702 T01000028
KJST 241654Z AUTO 27011KT 10SM CLR 11/02 A3003 RMK AO2 SLP175 T01060022
KJST 241554Z AUTO 27008KT 10SM FEW018 08/03 A3005 RMK AO2 SLP185 T00830033
KJST 241531Z AUTO 30008KT 10SM SCT014 08/03 A3005 RMK AO2 T00830033
KJST 241516Z AUTO 30009KT 10SM BKN013 08/03 A3005 RMK AO2 T00780033
KJST 241454Z AUTO 30014G20KT 8SM FEW011 07/03 A3005 RMK AO2 SLP185 T00720028 53000
KJST 241415Z AUTO 30017G22KT 10SM SCT010 07/03 A3005 RMK AO2 T00670033
KJST 241411Z AUTO 30015KT 10SM BKN009 07/03 A3005 RMK AO2 T00720033
KJST 241354Z AUTO 31015KT 10SM SCT009 07/03 A3005 RMK AO2 SLP183 T00670033
KJST 241347Z AUTO 30013KT 10SM BKN008 06/03 A3005 RMK AO2 CIG 008V012 T00610033
KJST 241306Z AUTO 27007KT 10SM FEW009 06/03 A3005 RMK AO2 T00560033
KJST 241254Z AUTO 28007KT 10SM CLR 06/03 A3005 RMK AO2 SLP185 T00610033
KJST 241235Z AUTO 31008KT 9SM SCT006 06/04 A3005 RMK AO2 T00610039
KJST 241211Z AUTO 31009KT 5SM BR OVC005 06/04 A3005 RMK AO2 CIG 004V009 T00560039
KJST 241154Z AUTO 29012KT 4SM BR OVC004 06/04 A3005 RMK AO2 SLP185 T00560044 10067 20056 50001
KJST 241128Z AUTO 29007KT 4SM BR OVC003 06/04 A3005 RMK AO2 T00560044
KJST 241112Z AUTO 30005KT 4SM BR OVC002 06/04 A3005 RMK AO2 T00560044
KJST 241105Z AUTO 30005KT 2 1/2SM BR OVC002 06/05 A3005 RMK AO2 T00560050
KJST 241054Z AUTO 32005KT 2 1/2SM BR OVC003 06/04 A3005 RMK AO2 SLP185 T00560044
KJST 241030Z AUTO 33011KT 4SM BR OVC003 06/04 A3005 RMK AO2 T00560044
KJST 241011Z AUTO 30008KT 3SM BR OVC002 06/04 A3004 RMK AO2 T00560044
KJST 241004Z AUTO 30009KT 2 1/2SM BR OVC002 06/04 A3005 RMK AO2 T00560044
KJST 240954Z AUTO 31010KT 1 1/2SM BR OVC002 06/05 A3004 RMK AO2 SLP182 T00560050
KJST 240950Z AUTO 30007KT 1 1/2SM BR OVC002 06/04 A3005 RMK AO2
KJST 240937Z AUTO 29009KT 1 3/4SM BR OVC003 06/04 A3004 RMK AO2 T00560044
KJST 240854Z AUTO 33008KT 6SM BR OVC004 06/04 A3002 RMK AO2 SLP171 T00610044 53001
KJST 240823Z AUTO 30012G18KT 6SM BR OVC004 06/05 A3001 RMK AO2 T00610050
KJST 240754Z AUTO 30014G19KT 7SM OVC005 07/04 A3000 RMK AO2 SLP164 T00670044
KJST 240654Z AUTO 31011KT 8SM OVC005 07/05 A3001 RMK AO2 CIG 005V009 SLP168 T00670050
KJST 240554Z AUTO 32014G23KT 9SM OVC006 07/05 A3002 RMK AO2 SLP171 T00670050 10100 20067 55000
KJST 240454Z AUTO 31015G24KT 10SM OVC009 07/04 A3002 RMK AO2 SLP170 T00720044 401440050
KJST 240429Z AUTO 30014KT 10SM BKN011 07/04 A3002 RMK AO2 T00720044
KJST 240354Z AUTO 31018KT 10SM CLR 07/04 A3002 RMK AO2 SLP175 T00720039
KJST 240254Z AUTO 31014KT 10SM CLR 08/03 A3003 RMK AO2 SLP179 T00780033 51004
KJST 240154Z AUTO 30015KT 10SM CLR 08/03 A3003 RMK AO2 SLP178 T00830028
KJST 240054Z AUTO 31016G23KT 10SM CLR 09/02 A3003 RMK AO2 SLP178 T00940022
KJST 232354Z AUTO 31016G22KT 10SM CLR 10/02 A3002 RMK AO2 SLP173 T01000022 10144 20100 53010
KJST 232254Z AUTO 31012KT 10SM CLR 11/02 A3001 RMK AO2 SLP168 T01110022
KJST 232154Z AUTO 32017G25KT 10SM CLR 12/03 A2999 RMK AO2 SLP163 T01220028
KJST 232054Z AUTO 31017KT 10SM FEW043 13/03 A2998 RMK AO2 PK WND 31029/1957 SLP158 T01330033 55003
KJST 231954Z AUTO 30014G25KT 10SM CLR 14/03 A2998 RMK AO2 PK WND 32027/1943 SLP156 T01390033